Ty Croes, United Kingdom
Current Conditions -  °F | °C
As of 5:50 AM on Saturday 20 Dec 2014 (Local Time) from EGOV Reporting Station
Scattered Clouds Scattered Clouds  
Wind Chill: 38°   Ceiling: Unl
Heat Index: 46°   Visibility: 6mi
Dew Point: 37°   Wind: 25mph
Humidity: 71%   Direction: 270°W
Pressure: 30.21"   Gusts: NA
Location:  53.19°N, 4.46°W
Report Text: EGOV 200550Z AUTO 27022KT 9999 SCT024/// SCT030/// 08/03 Q1023
Loading
Personal Weather Stations






























Interactive Weather Map New forecast layout! Learn more

10-Day Weather Forecast

Advertisements
Track Severe Weather on mobile